sensor_id;sensor_type;location;lat;lon;timestamp;P1;durP1;ratioP1;P2;durP2;ratioP2
25982;SDS011;13773;48.868;10.730;2022-09-14T00:00:04;4.37;;;2.43;;
25982;SDS011;13773;48.868;10.730;2022-09-14T00:02:31;9.73;;;2.80;;
25982;SDS011;13773;48.868;10.730;2022-09-14T00:04:56;2.60;;;2.40;;
25982;SDS011;13773;48.868;10.730;2022-09-14T00:07:22;2.87;;;2.67;;
25982;SDS011;13773;48.868;10.730;2022-09-14T00:09:49;4.93;;;2.53;;
25982;SDS011;13773;48.868;10.730;2022-09-14T00:12:15;4.20;;;2.70;;
25982;SDS011;13773;48.868;10.730;2022-09-14T00:14:41;6.13;;;3.00;;
25982;SDS011;13773;48.868;10.730;2022-09-14T00:17:07;2.87;;;2.60;;
25982;SDS011;13773;48.868;10.730;2022-09-14T00:19:32;5.80;;;2.80;;
25982;SDS011;13773;48.868;10.730;2022-09-14T00:21:58;4.03;;;2.67;;
25982;SDS011;13773;48.868;10.730;2022-09-14T00:24:25;2.67;;;2.47;;
25982;SDS011;13773;48.868;10.730;2022-09-14T00:26:52;3.80;;;2.73;;
25982;SDS011;13773;48.868;10.730;2022-09-14T00:29:18;5.17;;;3.20;;
25982;SDS011;13773;48.868;10.730;2022-09-14T00:31:44;5.63;;;4.50;;
25982;SDS011;13773;48.868;10.730;2022-09-14T00:34:11;3.27;;;2.97;;
25982;SDS011;13773;48.868;10.730;2022-09-14T00:36:42;3.17;;;2.73;;
25982;SDS011;13773;48.868;10.730;2022-09-14T00:39:10;4.57;;;4.20;;
25982;SDS011;13773;48.868;10.730;2022-09-14T00:41:38;5.40;;;4.53;;
25982;SDS011;13773;48.868;10.730;2022-09-14T00:46:38;4.20;;;2.83;;
25982;SDS011;13773;48.868;10.730;2022-09-14T00:49:09;4.43;;;4.03;;
25982;SDS011;13773;48.868;10.730;2022-09-14T00:51:48;6.07;;;2.90;;
25982;SDS011;13773;48.868;10.730;2022-09-14T00:54:19;3.67;;;3.37;;
25982;SDS011;13773;48.868;10.730;2022-09-14T00:56:45;3.93;;;3.53;;
25982;SDS011;13773;48.868;10.730;2022-09-14T00:59:14;3.83;;;3.53;;
25982;SDS011;13773;48.868;10.730;2022-09-14T01:01:43;3.30;;;2.60;;
25982;SDS011;13773;48.868;10.730;2022-09-14T01:04:09;4.73;;;4.33;;
25982;SDS011;13773;48.868;10.730;2022-09-14T01:06:37;3.50;;;3.17;;
25982;SDS011;13773;48.868;10.730;2022-09-14T01:14:56;3.83;;;3.10;;
25982;SDS011;13773;48.868;10.730;2022-09-14T01:17:34;3.63;;;3.33;;
25982;SDS011;13773;48.868;10.730;2022-09-14T01:20:22;5.63;;;3.07;;
25982;SDS011;13773;48.868;10.730;2022-09-14T01:27:59;2.87;;;2.67;;
25982;SDS011;13773;48.868;10.730;2022-09-14T01:30:30;4.37;;;3.20;;
25982;SDS011;13773;48.868;10.730;2022-09-14T01:33:03;5.17;;;3.20;;
25982;SDS011;13773;48.868;10.730;2022-09-14T01:35:49;4.37;;;3.10;;
25982;SDS011;13773;48.868;10.730;2022-09-14T01:38:22;3.53;;;3.23;;
25982;SDS011;13773;48.868;10.730;2022-09-14T01:40:59;9.47;;;3.80;;
25982;SDS011;13773;48.868;10.730;2022-09-14T01:46:04;6.03;;;3.83;;
25982;SDS011;13773;48.868;10.730;2022-09-14T01:48:44;4.83;;;3.87;;
25982;SDS011;13773;48.868;10.730;2022-09-14T01:51:30;4.80;;;3.90;;
25982;SDS011;13773;48.868;10.730;2022-09-14T01:54:09;4.60;;;4.10;;
25982;SDS011;13773;48.868;10.730;2022-09-14T01:56:41;6.27;;;3.73;;
25982;SDS011;13773;48.868;10.730;2022-09-14T01:59:24;4.47;;;4.13;;
25982;SDS011;13773;48.868;10.730;2022-09-14T02:07:27;5.73;;;3.90;;
25982;SDS011;13773;48.868;10.730;2022-09-14T02:09:53;5.37;;;3.33;;
25982;SDS011;13773;48.868;10.730;2022-09-14T02:12:20;6.53;;;4.03;;
25982;SDS011;13773;48.868;10.730;2022-09-14T02:14:46;7.97;;;4.60;;
25982;SDS011;13773;48.868;10.730;2022-09-14T02:17:14;6.20;;;5.07;;
25982;SDS011;13773;48.868;10.730;2022-09-14T02:19:42;5.43;;;4.90;;
25982;SDS011;13773;48.868;10.730;2022-09-14T02:22:13;6.70;;;5.20;;
25982;SDS011;13773;48.868;10.730;2022-09-14T02:24:38;6.20;;;5.20;;
25982;SDS011;13773;48.868;10.730;2022-09-14T02:27:05;4.10;;;3.80;;
25982;SDS011;13773;48.868;10.730;2022-09-14T02:29:31;6.17;;;5.60;;
25982;SDS011;13773;48.868;10.730;2022-09-14T02:34:35;5.03;;;4.63;;
25982;SDS011;13773;48.868;10.730;2022-09-14T02:37:17;6.70;;;5.97;;
25982;SDS011;13773;48.868;10.730;2022-09-14T02:42:17;7.40;;;6.20;;
25982;SDS011;13773;48.868;10.730;2022-09-14T02:47:47;6.03;;;5.53;;
25982;SDS011;13773;48.868;10.730;2022-09-14T02:50:27;10.03;;;7.73;;
25982;SDS011;13773;48.868;10.730;2022-09-14T02:53:16;8.03;;;7.23;;
25982;SDS011;13773;48.868;10.730;2022-09-14T02:55:48;8.97;;;7.80;;
25982;SDS011;13773;48.868;10.730;2022-09-14T02:58:18;9.60;;;7.83;;
25982;SDS011;13773;48.868;10.730;2022-09-14T03:00:44;9.53;;;8.63;;
25982;SDS011;13773;48.868;10.730;2022-09-14T03:03:13;10.60;;;9.60;;
25982;SDS011;13773;48.868;10.730;2022-09-14T03:05:41;11.80;;;10.70;;
25982;SDS011;13773;48.868;10.730;2022-09-14T03:08:07;12.73;;;11.53;;
25982;SDS011;13773;48.868;10.730;2022-09-14T03:10:34;12.73;;;11.43;;
25982;SDS011;13773;48.868;10.730;2022-09-14T03:13:00;13.97;;;12.57;;
25982;SDS011;13773;48.868;10.730;2022-09-14T03:15:27;13.77;;;12.57;;
25982;SDS011;13773;48.868;10.730;2022-09-14T03:17:53;14.77;;;13.33;;
25982;SDS011;13773;48.868;10.730;2022-09-14T03:20:19;17.10;;;12.37;;
25982;SDS011;13773;48.868;10.730;2022-09-14T03:22:50;16.83;;;15.17;;
25982;SDS011;13773;48.868;10.730;2022-09-14T03:25:16;16.90;;;14.90;;
25982;SDS011;13773;48.868;10.730;2022-09-14T03:27:46;20.07;;;16.57;;
25982;SDS011;13773;48.868;10.730;2022-09-14T03:30:16;19.20;;;17.03;;
25982;SDS011;13773;48.868;10.730;2022-09-14T03:32:42;20.40;;;17.77;;
25982;SDS011;13773;48.868;10.730;2022-09-14T03:35:08;17.30;;;15.70;;
25982;SDS011;13773;48.868;10.730;2022-09-14T03:37:37;18.27;;;16.37;;
25982;SDS011;13773;48.868;10.730;2022-09-14T03:40:04;21.97;;;19.67;;
25982;SDS011;13773;48.868;10.730;2022-09-14T03:42:31;21.33;;;19.17;;
25982;SDS011;13773;48.868;10.730;2022-09-14T03:44:56;28.37;;;20.53;;
25982;SDS011;13773;48.868;10.730;2022-09-14T03:47:22;21.47;;;19.13;;
25982;SDS011;13773;48.868;10.730;2022-09-14T03:49:48;24.00;;;21.23;;
25982;SDS011;13773;48.868;10.730;2022-09-14T03:52:14;18.80;;;16.60;;
25982;SDS011;13773;48.868;10.730;2022-09-14T03:54:40;20.40;;;17.83;;
25982;SDS011;13773;48.868;10.730;2022-09-14T03:57:06;21.90;;;19.33;;
25982;SDS011;13773;48.868;10.730;2022-09-14T03:59:33;20.63;;;18.13;;
25982;SDS011;13773;48.868;10.730;2022-09-14T04:01:59;20.77;;;17.33;;
25982;SDS011;13773;48.868;10.730;2022-09-14T04:04:25;19.20;;;17.20;;
25982;SDS011;13773;48.868;10.730;2022-09-14T04:06:51;21.30;;;19.10;;
25982;SDS011;13773;48.868;10.730;2022-09-14T04:09:17;20.93;;;18.93;;
25982;SDS011;13773;48.868;10.730;2022-09-14T04:11:43;21.50;;;19.33;;
25982;SDS011;13773;48.868;10.730;2022-09-14T04:14:10;22.50;;;20.20;;
25982;SDS011;13773;48.868;10.730;2022-09-14T04:16:37;22.00;;;18.30;;
25982;SDS011;13773;48.868;10.730;2022-09-14T04:19:03;23.00;;;20.60;;
25982;SDS011;13773;48.868;10.730;2022-09-14T04:21:28;24.57;;;21.93;;
25982;SDS011;13773;48.868;10.730;2022-09-14T04:23:55;23.43;;;20.90;;
25982;SDS011;13773;48.868;10.730;2022-09-14T04:26:23;22.13;;;19.87;;
25982;SDS011;13773;48.868;10.730;2022-09-14T04:28:50;24.23;;;21.63;;
25982;SDS011;13773;48.868;10.730;2022-09-14T04:31:16;23.47;;;20.90;;
25982;SDS011;13773;48.868;10.730;2022-09-14T04:33:42;24.23;;;21.73;;
25982;SDS011;13773;48.868;10.730;2022-09-14T04:36:10;26.07;;;23.30;;
25982;SDS011;13773;48.868;10.730;2022-09-14T04:38:37;23.83;;;21.27;;
25982;SDS011;13773;48.868;10.730;2022-09-14T04:41:04;24.20;;;21.77;;
25982;SDS011;13773;48.868;10.730;2022-09-14T04:43:36;25.20;;;22.60;;
25982;SDS011;13773;48.868;10.730;2022-09-14T04:46:06;27.17;;;24.23;;
25982;SDS011;13773;48.868;10.730;2022-09-14T04:48:34;25.27;;;22.60;;
25982;SDS011;13773;48.868;10.730;2022-09-14T04:51:01;26.33;;;23.50;;
25982;SDS011;13773;48.868;10.730;2022-09-14T04:53:37;25.60;;;23.10;;
25982;SDS011;13773;48.868;10.730;2022-09-14T04:56:05;26.97;;;24.27;;
25982;SDS011;13773;48.868;10.730;2022-09-14T04:58:33;27.37;;;23.77;;
25982;SDS011;13773;48.868;10.730;2022-09-14T05:01:00;25.83;;;22.97;;
25982;SDS011;13773;48.868;10.730;2022-09-14T05:03:30;26.43;;;23.67;;
25982;SDS011;13773;48.868;10.730;2022-09-14T05:06:03;30.50;;;27.20;;
25982;SDS011;13773;48.868;10.730;2022-09-14T05:08:29;29.43;;;26.33;;
25982;SDS011;13773;48.868;10.730;2022-09-14T05:10:56;31.07;;;27.37;;
25982;SDS011;13773;48.868;10.730;2022-09-14T05:13:22;32.10;;;26.97;;
25982;SDS011;13773;48.868;10.730;2022-09-14T05:15:48;31.63;;;27.60;;
25982;SDS011;13773;48.868;10.730;2022-09-14T05:18:15;29.67;;;26.67;;
25982;SDS011;13773;48.868;10.730;2022-09-14T05:20:41;29.17;;;26.10;;
25982;SDS011;13773;48.868;10.730;2022-09-14T05:23:06;31.03;;;27.80;;
25982;SDS011;13773;48.868;10.730;2022-09-14T05:25:32;31.33;;;28.13;;
25982;SDS011;13773;48.868;10.730;2022-09-14T05:27:58;31.80;;;28.37;;
25982;SDS011;13773;48.868;10.730;2022-09-14T05:30:23;30.23;;;26.90;;
25982;SDS011;13773;48.868;10.730;2022-09-14T05:32:49;31.53;;;28.20;;
25982;SDS011;13773;48.868;10.730;2022-09-14T05:35:15;34.87;;;30.10;;
25982;SDS011;13773;48.868;10.730;2022-09-14T05:37:40;30.93;;;27.77;;
25982;SDS011;13773;48.868;10.730;2022-09-14T05:40:06;32.50;;;29.20;;
25982;SDS011;13773;48.868;10.730;2022-09-14T05:42:33;34.43;;;30.00;;
25982;SDS011;13773;48.868;10.730;2022-09-14T05:44:59;33.23;;;29.87;;
25982;SDS011;13773;48.868;10.730;2022-09-14T05:47:25;31.17;;;28.07;;
25982;SDS011;13773;48.868;10.730;2022-09-14T05:49:53;29.93;;;26.80;;
25982;SDS011;13773;48.868;10.730;2022-09-14T05:52:19;28.53;;;25.63;;
25982;SDS011;13773;48.868;10.730;2022-09-14T05:54:49;30.23;;;27.03;;
25982;SDS011;13773;48.868;10.730;2022-09-14T05:57:14;32.30;;;28.80;;
25982;SDS011;13773;48.868;10.730;2022-09-14T05:59:40;31.70;;;28.17;;
25982;SDS011;13773;48.868;10.730;2022-09-14T06:02:06;29.23;;;26.33;;
25982;SDS011;13773;48.868;10.730;2022-09-14T06:04:33;29.43;;;26.47;;
25982;SDS011;13773;48.868;10.730;2022-09-14T06:07:00;30.67;;;27.30;;
25982;SDS011;13773;48.868;10.730;2022-09-14T06:09:26;30.47;;;27.23;;
25982;SDS011;13773;48.868;10.730;2022-09-14T06:11:51;29.87;;;26.97;;
25982;SDS011;13773;48.868;10.730;2022-09-14T06:14:17;33.40;;;29.77;;
25982;SDS011;13773;48.868;10.730;2022-09-14T06:16:44;33.03;;;29.17;;
25982;SDS011;13773;48.868;10.730;2022-09-14T06:19:11;32.63;;;29.27;;
25982;SDS011;13773;48.868;10.730;2022-09-14T06:21:39;30.07;;;26.90;;
25982;SDS011;13773;48.868;10.730;2022-09-14T06:24:05;29.73;;;26.63;;
25982;SDS011;13773;48.868;10.730;2022-09-14T06:26:31;30.37;;;27.47;;
25982;SDS011;13773;48.868;10.730;2022-09-14T06:28:57;31.57;;;28.37;;
25982;SDS011;13773;48.868;10.730;2022-09-14T06:31:23;27.73;;;24.93;;
25982;SDS011;13773;48.868;10.730;2022-09-14T06:33:49;28.57;;;25.77;;
25982;SDS011;13773;48.868;10.730;2022-09-14T06:36:17;26.70;;;23.80;;
25982;SDS011;13773;48.868;10.730;2022-09-14T06:38:45;25.67;;;23.13;;
25982;SDS011;13773;48.868;10.730;2022-09-14T06:41:13;25.07;;;22.23;;
25982;SDS011;13773;48.868;10.730;2022-09-14T06:43:42;22.30;;;19.80;;
25982;SDS011;13773;48.868;10.730;2022-09-14T06:46:15;20.07;;;18.23;;
25982;SDS011;13773;48.868;10.730;2022-09-14T06:53:48;18.60;;;16.67;;
25982;SDS011;13773;48.868;10.730;2022-09-14T06:56:14;18.23;;;16.63;;
25982;SDS011;13773;48.868;10.730;2022-09-14T06:58:41;15.83;;;14.27;;
25982;SDS011;13773;48.868;10.730;2022-09-14T07:01:09;15.80;;;14.20;;
25982;SDS011;13773;48.868;10.730;2022-09-14T07:03:38;14.10;;;12.67;;
25982;SDS011;13773;48.868;10.730;2022-09-14T07:06:05;13.93;;;12.63;;
25982;SDS011;13773;48.868;10.730;2022-09-14T07:08:33;12.90;;;11.90;;
25982;SDS011;13773;48.868;10.730;2022-09-14T07:11:01;13.73;;;12.43;;
25982;SDS011;13773;48.868;10.730;2022-09-14T07:13:28;14.03;;;12.80;;
25982;SDS011;13773;48.868;10.730;2022-09-14T07:15:54;13.93;;;12.63;;
25982;SDS011;13773;48.868;10.730;2022-09-14T07:18:20;15.20;;;13.70;;
25982;SDS011;13773;48.868;10.730;2022-09-14T07:20:47;14.40;;;12.93;;
25982;SDS011;13773;48.868;10.730;2022-09-14T07:23:13;14.40;;;13.17;;
25982;SDS011;13773;48.868;10.730;2022-09-14T07:25:39;13.93;;;12.73;;
25982;SDS011;13773;48.868;10.730;2022-09-14T07:28:06;14.83;;;13.33;;
25982;SDS011;13773;48.868;10.730;2022-09-14T07:30:36;13.60;;;12.30;;
25982;SDS011;13773;48.868;10.730;2022-09-14T07:33:05;13.77;;;12.47;;
25982;SDS011;13773;48.868;10.730;2022-09-14T07:35:32;12.37;;;11.07;;
25982;SDS011;13773;48.868;10.730;2022-09-14T07:37:57;11.97;;;10.93;;
25982;SDS011;13773;48.868;10.730;2022-09-14T07:40:23;11.30;;;10.10;;
25982;SDS011;13773;48.868;10.730;2022-09-14T07:42:51;10.63;;;9.60;;
25982;SDS011;13773;48.868;10.730;2022-09-14T07:45:18;10.13;;;9.23;;
25982;SDS011;13773;48.868;10.730;2022-09-14T07:47:44;9.80;;;8.97;;
25982;SDS011;13773;48.868;10.730;2022-09-14T07:50:10;10.10;;;9.17;;
25982;SDS011;13773;48.868;10.730;2022-09-14T07:52:36;10.00;;;9.20;;
25982;SDS011;13773;48.868;10.730;2022-09-14T07:55:03;9.57;;;8.70;;
25982;SDS011;13773;48.868;10.730;2022-09-14T07:57:30;9.33;;;8.53;;
25982;SDS011;13773;48.868;10.730;2022-09-14T07:59:55;9.23;;;8.33;;
25982;SDS011;13773;48.868;10.730;2022-09-14T08:02:22;8.40;;;7.57;;
25982;SDS011;13773;48.868;10.730;2022-09-14T08:04:48;8.63;;;7.93;;
25982;SDS011;13773;48.868;10.730;2022-09-14T08:07:17;10.10;;;8.97;;
25982;SDS011;13773;48.868;10.730;2022-09-14T08:09:43;9.47;;;8.47;;
25982;SDS011;13773;48.868;10.730;2022-09-14T08:12:10;9.20;;;8.50;;
25982;SDS011;13773;48.868;10.730;2022-09-14T08:14:39;9.13;;;8.33;;
25982;SDS011;13773;48.868;10.730;2022-09-14T08:17:04;11.07;;;8.53;;
25982;SDS011;13773;48.868;10.730;2022-09-14T08:19:30;9.53;;;8.63;;
25982;SDS011;13773;48.868;10.730;2022-09-14T08:21:55;8.80;;;7.90;;
25982;SDS011;13773;48.868;10.730;2022-09-14T08:24:21;9.07;;;8.23;;
25982;SDS011;13773;48.868;10.730;2022-09-14T08:26:47;8.27;;;7.57;;
25982;SDS011;13773;48.868;10.730;2022-09-14T08:29:14;8.53;;;7.73;;
25982;SDS011;13773;48.868;10.730;2022-09-14T08:31:42;7.93;;;7.17;;
25982;SDS011;13773;48.868;10.730;2022-09-14T08:34:09;8.80;;;6.63;;
25982;SDS011;13773;48.868;10.730;2022-09-14T08:36:36;8.27;;;6.90;;
25982;SDS011;13773;48.868;10.730;2022-09-14T08:39:04;7.50;;;6.43;;
25982;SDS011;13773;48.868;10.730;2022-09-14T08:46:58;6.33;;;5.73;;
25982;SDS011;13773;48.868;10.730;2022-09-14T08:58:01;5.70;;;5.10;;
25982;SDS011;13773;48.868;10.730;2022-09-14T09:06:15;5.37;;;4.87;;
25982;SDS011;13773;48.868;10.730;2022-09-14T09:11:20;5.13;;;4.63;;
25982;SDS011;13773;48.868;10.730;2022-09-14T09:13:48;4.97;;;4.57;;
25982;SDS011;13773;48.868;10.730;2022-09-14T09:16:16;5.37;;;4.83;;
25982;SDS011;13773;48.868;10.730;2022-09-14T09:18:58;6.50;;;4.97;;
25982;SDS011;13773;48.868;10.730;2022-09-14T09:21:34;6.63;;;4.63;;
25982;SDS011;13773;48.868;10.730;2022-09-14T09:27:12;5.37;;;4.67;;
25982;SDS011;13773;48.868;10.730;2022-09-14T09:29:39;5.77;;;5.03;;
25982;SDS011;13773;48.868;10.730;2022-09-14T09:32:26;5.00;;;4.60;;
25982;SDS011;13773;48.868;10.730;2022-09-14T09:34:51;5.70;;;4.97;;
25982;SDS011;13773;48.868;10.730;2022-09-14T09:37:19;5.27;;;4.77;;
25982;SDS011;13773;48.868;10.730;2022-09-14T09:39:47;5.30;;;4.60;;
25982;SDS011;13773;48.868;10.730;2022-09-14T09:42:23;6.97;;;4.10;;
25982;SDS011;13773;48.868;10.730;2022-09-14T09:47:33;6.63;;;4.60;;
25982;SDS011;13773;48.868;10.730;2022-09-14T09:50:05;5.23;;;4.70;;
25982;SDS011;13773;48.868;10.730;2022-09-14T09:52:52;8.17;;;5.00;;
25982;SDS011;13773;48.868;10.730;2022-09-14T09:55:21;5.20;;;4.13;;
25982;SDS011;13773;48.868;10.730;2022-09-14T09:57:51;5.13;;;4.63;;
25982;SDS011;13773;48.868;10.730;2022-09-14T10:02:46;4.70;;;3.80;;
25982;SDS011;13773;48.868;10.730;2022-09-14T10:07:39;5.53;;;3.83;;
25982;SDS011;13773;48.868;10.730;2022-09-14T10:10:09;4.33;;;3.67;;
25982;SDS011;13773;48.868;10.730;2022-09-14T10:12:38;8.20;;;4.27;;
25982;SDS011;13773;48.868;10.730;2022-09-14T10:21:11;4.27;;;3.47;;
25982;SDS011;13773;48.868;10.730;2022-09-14T10:23:32;6.67;;;3.20;;
25982;SDS011;13773;48.868;10.730;2022-09-14T10:28:38;6.33;;;3.50;;
25982;SDS011;13773;48.868;10.730;2022-09-14T10:33:42;5.63;;;3.27;;
25982;SDS011;13773;48.868;10.730;2022-09-14T10:38:52;4.57;;;3.03;;
25982;SDS011;13773;48.868;10.730;2022-09-14T10:47:06;4.73;;;2.57;;
25982;SDS011;13773;48.868;10.730;2022-09-14T10:52:35;5.77;;;3.23;;
25982;SDS011;13773;48.868;10.730;2022-09-14T10:57:58;4.35;;;2.95;;
25982;SDS011;13773;48.868;10.730;2022-09-14T11:00:29;6.70;;;2.90;;
25982;SDS011;13773;48.868;10.730;2022-09-14T11:05:45;6.15;;;2.70;;
25982;SDS011;13773;48.868;10.730;2022-09-14T11:08:38;5.38;;;2.70;;
25982;SDS011;13773;48.868;10.730;2022-09-14T11:22:41;5.18;;;2.17;;
25982;SDS011;13773;48.868;10.730;2022-09-14T11:30:15;4.45;;;2.22;;
25982;SDS011;13773;48.868;10.730;2022-09-14T11:37:59;3.05;;;2.10;;
25982;SDS011;13773;48.868;10.730;2022-09-14T11:40:33;4.65;;;2.63;;
25982;SDS011;13773;48.868;10.730;2022-09-14T11:48:36;2.97;;;2.13;;
25982;SDS011;13773;48.868;10.730;2022-09-14T11:51:08;4.40;;;2.40;;
25982;SDS011;13773;48.868;10.730;2022-09-14T11:54:01;5.63;;;2.47;;
25982;SDS011;13773;48.868;10.730;2022-09-14T11:56:33;4.20;;;2.42;;
25982;SDS011;13773;48.868;10.730;2022-09-14T11:59:03;3.30;;;2.60;;
25982;SDS011;13773;48.868;10.730;2022-09-14T12:01:39;6.55;;;2.60;;
25982;SDS011;13773;48.868;10.730;2022-09-14T12:04:07;5.00;;;2.28;;
25982;SDS011;13773;48.868;10.730;2022-09-14T12:06:46;3.88;;;2.40;;
25982;SDS011;13773;48.868;10.730;2022-09-14T12:11:49;4.40;;;2.35;;
25982;SDS011;13773;48.868;10.730;2022-09-14T12:19:36;4.47;;;2.45;;
25982;SDS011;13773;48.868;10.730;2022-09-14T12:27:30;4.43;;;2.60;;
25982;SDS011;13773;48.868;10.730;2022-09-14T12:29:59;4.22;;;2.40;;
25982;SDS011;13773;48.868;10.730;2022-09-14T12:32:27;4.82;;;2.88;;
25982;SDS011;13773;48.868;10.730;2022-09-14T12:40:53;4.10;;;2.40;;
25982;SDS011;13773;48.868;10.730;2022-09-14T12:56:43;4.25;;;2.30;;
25982;SDS011;13773;48.868;10.730;2022-09-14T13:05:22;3.67;;;2.38;;
25982;SDS011;13773;48.868;10.730;2022-09-14T13:07:50;5.45;;;2.45;;
25982;SDS011;13773;48.868;10.730;2022-09-14T13:10:29;4.85;;;2.15;;
25982;SDS011;13773;48.868;10.730;2022-09-14T13:12:55;3.75;;;2.40;;
25982;SDS011;13773;48.868;10.730;2022-09-14T13:15:25;4.05;;;2.45;;
25982;SDS011;13773;48.868;10.730;2022-09-14T13:20:30;4.15;;;2.08;;
25982;SDS011;13773;48.868;10.730;2022-09-14T13:22:58;3.65;;;2.70;;
25982;SDS011;13773;48.868;10.730;2022-09-14T13:25:32;5.63;;;2.55;;
25982;SDS011;13773;48.868;10.730;2022-09-14T13:28:00;5.38;;;2.40;;
25982;SDS011;13773;48.868;10.730;2022-09-14T13:30:31;2.70;;;1.85;;
25982;SDS011;13773;48.868;10.730;2022-09-14T13:32:58;4.10;;;2.20;;
25982;SDS011;13773;48.868;10.730;2022-09-14T13:38:12;5.00;;;2.20;;
25982;SDS011;13773;48.868;10.730;2022-09-14T13:40:40;2.67;;;2.15;;
25982;SDS011;13773;48.868;10.730;2022-09-14T13:43:06;5.75;;;2.10;;
25982;SDS011;13773;48.868;10.730;2022-09-14T13:45:33;5.10;;;2.30;;
25982;SDS011;13773;48.868;10.730;2022-09-14T13:48:00;5.22;;;2.30;;
25982;SDS011;13773;48.868;10.730;2022-09-14T13:50:28;3.55;;;2.25;;
25982;SDS011;13773;48.868;10.730;2022-09-14T13:52:54;3.67;;;2.17;;
25982;SDS011;13773;48.868;10.730;2022-09-14T14:03:40;3.92;;;2.47;;
25982;SDS011;13773;48.868;10.730;2022-09-14T14:09:05;2.72;;;2.30;;
25982;SDS011;13773;48.868;10.730;2022-09-14T14:11:36;4.45;;;2.38;;
25982;SDS011;13773;48.868;10.730;2022-09-14T14:16:41;4.97;;;2.50;;
25982;SDS011;13773;48.868;10.730;2022-09-14T14:19:28;6.57;;;2.70;;
25982;SDS011;13773;48.868;10.730;2022-09-14T14:22:10;6.75;;;2.80;;
25982;SDS011;13773;48.868;10.730;2022-09-14T14:24:43;4.60;;;2.70;;
25982;SDS011;13773;48.868;10.730;2022-09-14T14:29:55;6.28;;;2.90;;
25982;SDS011;13773;48.868;10.730;2022-09-14T14:32:22;6.30;;;3.08;;
25982;SDS011;13773;48.868;10.730;2022-09-14T14:34:48;5.97;;;3.35;;
25982;SDS011;13773;48.868;10.730;2022-09-14T14:37:16;4.35;;;2.30;;
25982;SDS011;13773;48.868;10.730;2022-09-14T14:39:43;4.37;;;2.30;;
25982;SDS011;13773;48.868;10.730;2022-09-14T14:42:09;2.97;;;2.23;;
25982;SDS011;13773;48.868;10.730;2022-09-14T14:44:35;3.93;;;2.60;;
25982;SDS011;13773;48.868;10.730;2022-09-14T14:47:01;5.07;;;2.70;;
25982;SDS011;13773;48.868;10.730;2022-09-14T14:49:30;4.43;;;2.77;;
25982;SDS011;13773;48.868;10.730;2022-09-14T14:51:56;6.93;;;3.17;;
25982;SDS011;13773;48.868;10.730;2022-09-14T14:54:21;7.03;;;3.27;;
25982;SDS011;13773;48.868;10.730;2022-09-14T14:56:48;7.47;;;3.80;;
25982;SDS011;13773;48.868;10.730;2022-09-14T15:01:46;5.53;;;3.27;;
25982;SDS011;13773;48.868;10.730;2022-09-14T15:04:13;4.90;;;3.30;;
25982;SDS011;13773;48.868;10.730;2022-09-14T15:06:39;3.93;;;3.50;;
25982;SDS011;13773;48.868;10.730;2022-09-14T15:09:06;4.90;;;3.20;;
25982;SDS011;13773;48.868;10.730;2022-09-14T15:11:38;5.53;;;3.97;;
25982;SDS011;13773;48.868;10.730;2022-09-14T15:14:10;5.77;;;4.17;;
25982;SDS011;13773;48.868;10.730;2022-09-14T15:16:41;5.93;;;4.43;;
25982;SDS011;13773;48.868;10.730;2022-09-14T15:19:07;5.83;;;4.77;;
25982;SDS011;13773;48.868;10.730;2022-09-14T15:21:34;6.23;;;4.53;;
25982;SDS011;13773;48.868;10.730;2022-09-14T15:24:00;5.27;;;4.60;;
25982;SDS011;13773;48.868;10.730;2022-09-14T15:26:27;7.53;;;5.00;;
25982;SDS011;13773;48.868;10.730;2022-09-14T15:28:52;9.07;;;5.00;;
25982;SDS011;13773;48.868;10.730;2022-09-14T15:31:18;7.87;;;4.40;;
25982;SDS011;13773;48.868;10.730;2022-09-14T15:33:44;5.73;;;4.37;;
25982;SDS011;13773;48.868;10.730;2022-09-14T15:36:10;4.20;;;3.87;;
25982;SDS011;13773;48.868;10.730;2022-09-14T15:38:36;4.90;;;3.87;;
25982;SDS011;13773;48.868;10.730;2022-09-14T15:41:02;6.53;;;4.27;;
25982;SDS011;13773;48.868;10.730;2022-09-14T15:43:27;6.43;;;4.03;;
25982;SDS011;13773;48.868;10.730;2022-09-14T15:45:53;4.43;;;4.03;;
25982;SDS011;13773;48.868;10.730;2022-09-14T15:48:19;4.97;;;4.50;;
25982;SDS011;13773;48.868;10.730;2022-09-14T15:50:45;7.03;;;5.60;;
25982;SDS011;13773;48.868;10.730;2022-09-14T15:53:13;6.77;;;5.33;;
25982;SDS011;13773;48.868;10.730;2022-09-14T15:55:40;6.87;;;6.00;;
25982;SDS011;13773;48.868;10.730;2022-09-14T15:58:07;6.40;;;5.80;;
25982;SDS011;13773;48.868;10.730;2022-09-14T16:00:33;6.87;;;5.80;;
25982;SDS011;13773;48.868;10.730;2022-09-14T16:02:59;6.03;;;5.50;;
25982;SDS011;13773;48.868;10.730;2022-09-14T16:05:25;8.67;;;6.20;;
25982;SDS011;13773;48.868;10.730;2022-09-14T16:07:52;7.43;;;5.73;;
25982;SDS011;13773;48.868;10.730;2022-09-14T16:10:18;5.00;;;4.53;;
25982;SDS011;13773;48.868;10.730;2022-09-14T16:12:44;6.00;;;5.33;;
25982;SDS011;13773;48.868;10.730;2022-09-14T16:15:09;6.03;;;5.40;;
25982;SDS011;13773;48.868;10.730;2022-09-14T16:17:37;6.03;;;5.20;;
25982;SDS011;13773;48.868;10.730;2022-09-14T16:20:03;5.97;;;5.33;;
25982;SDS011;13773;48.868;10.730;2022-09-14T16:22:30;5.53;;;4.80;;
25982;SDS011;13773;48.868;10.730;2022-09-14T16:24:56;5.80;;;4.40;;
25982;SDS011;13773;48.868;10.730;2022-09-14T16:27:22;4.50;;;4.10;;
25982;SDS011;13773;48.868;10.730;2022-09-14T16:29:48;6.77;;;4.70;;
25982;SDS011;13773;48.868;10.730;2022-09-14T16:32:13;5.77;;;5.27;;
25982;SDS011;13773;48.868;10.730;2022-09-14T16:34:39;7.17;;;4.47;;
25982;SDS011;13773;48.868;10.730;2022-09-14T16:37:05;5.40;;;4.87;;
25982;SDS011;13773;48.868;10.730;2022-09-14T16:39:31;5.30;;;4.60;;
25982;SDS011;13773;48.868;10.730;2022-09-14T16:41:59;6.33;;;4.80;;
25982;SDS011;13773;48.868;10.730;2022-09-14T16:44:26;6.07;;;4.20;;
25982;SDS011;13773;48.868;10.730;2022-09-14T16:46:52;5.40;;;4.43;;
25982;SDS011;13773;48.868;10.730;2022-09-14T16:49:21;6.83;;;4.77;;
25982;SDS011;13773;48.868;10.730;2022-09-14T16:51:47;6.87;;;5.40;;
25982;SDS011;13773;48.868;10.730;2022-09-14T16:54:17;5.83;;;4.47;;
25982;SDS011;13773;48.868;10.730;2022-09-14T16:56:44;4.50;;;3.60;;
25982;SDS011;13773;48.868;10.730;2022-09-14T16:59:10;4.20;;;3.77;;
25982;SDS011;13773;48.868;10.730;2022-09-14T17:01:38;4.03;;;3.17;;
25982;SDS011;13773;48.868;10.730;2022-09-14T17:04:06;3.47;;;3.00;;
25982;SDS011;13773;48.868;10.730;2022-09-14T17:06:34;4.27;;;2.97;;
25982;SDS011;13773;48.868;10.730;2022-09-14T17:09:03;3.57;;;2.60;;
25982;SDS011;13773;48.868;10.730;2022-09-14T17:11:31;3.33;;;2.70;;
25982;SDS011;13773;48.868;10.730;2022-09-14T17:13:58;2.70;;;2.13;;
25982;SDS011;13773;48.868;10.730;2022-09-14T17:16:25;3.03;;;2.20;;
25982;SDS011;13773;48.868;10.730;2022-09-14T17:18:52;3.67;;;2.23;;
25982;SDS011;13773;48.868;10.730;2022-09-14T17:21:22;5.33;;;2.43;;
25982;SDS011;13773;48.868;10.730;2022-09-14T17:23:49;2.80;;;2.60;;
25982;SDS011;13773;48.868;10.730;2022-09-14T17:26:16;2.93;;;2.70;;
25982;SDS011;13773;48.868;10.730;2022-09-14T17:28:43;4.73;;;2.90;;
25982;SDS011;13773;48.868;10.730;2022-09-14T17:31:12;3.80;;;2.87;;
25982;SDS011;13773;48.868;10.730;2022-09-14T17:33:39;2.87;;;2.50;;
25982;SDS011;13773;48.868;10.730;2022-09-14T17:36:06;2.30;;;2.10;;
25982;SDS011;13773;48.868;10.730;2022-09-14T17:38:33;2.67;;;2.47;;